createdAt,value
2018-08-13T00:00:24.124Z,78.70
2018-08-13T00:02:53.609Z,79.24
2018-08-13T00:05:23.138Z,78.90
2018-08-13T00:07:53.349Z,79.74
2018-08-13T00:10:22.774Z,79.86
2018-08-13T00:12:52.167Z,79.88
2018-08-13T00:15:21.692Z,79.28
2018-08-13T00:17:51.056Z,79.25
2018-08-13T00:20:21.804Z,79.41
2018-08-13T00:22:52.242Z,79.87
2018-08-13T00:25:21.761Z,79.46
2018-08-13T00:27:52.342Z,80.79
2018-08-13T00:30:21.909Z,80.73
2018-08-13T00:32:51.464Z,80.84
2018-08-13T00:35:20.925Z,80.70
2018-08-13T00:37:50.415Z,80.03
2018-08-13T00:40:19.820Z,80.66
2018-08-13T00:42:49.272Z,80.61
2018-08-13T00:45:18.775Z,80.08
2018-08-13T00:47:48.210Z,79.99
2018-08-13T00:50:17.648Z,80.28
2018-08-13T00:52:47.051Z,79.62
2018-08-13T00:55:16.578Z,79.70
2018-08-13T00:57:46.023Z,80.21
2018-08-13T01:00:20.079Z,79.60
2018-08-13T01:02:50.030Z,80.15
2018-08-13T01:05:20.650Z,79.74
2018-08-13T01:07:50.164Z,80.25
2018-08-13T01:10:22.049Z,80.19
2018-08-13T01:12:52.766Z,79.52
2018-08-13T01:15:22.212Z,79.63
2018-08-13T01:17:51.844Z,80.33
2018-08-13T01:20:22.641Z,80.39
2018-08-13T01:22:52.040Z,79.84
2018-08-13T01:25:21.706Z,80.03
2018-08-13T01:27:51.186Z,80.09
2018-08-13T01:30:21.193Z,79.51
2018-08-13T01:32:50.657Z,80.03
2018-08-13T01:35:20.056Z,80.30
2018-08-13T01:37:49.486Z,80.67
2018-08-13T01:40:18.868Z,80.56
2018-08-13T01:42:48.314Z,81.38
2018-08-13T01:45:17.723Z,81.75
2018-08-13T01:47:47.205Z,81.63
2018-08-13T01:50:16.618Z,81.98
2018-08-13T01:52:46.054Z,81.48
2018-08-13T01:55:15.550Z,81.97
2018-08-13T01:57:45.013Z,82.05
2018-08-13T02:00:16.747Z,81.44
2018-08-13T02:02:46.181Z,81.76
2018-08-13T02:05:15.633Z,81.66
2018-08-13T02:07:45.136Z,81.77
2018-08-13T02:10:14.794Z,81.60
2018-08-13T02:12:44.234Z,82.08
2018-08-13T02:15:13.651Z,81.95
2018-08-13T02:17:43.068Z,82.84
2018-08-13T02:20:12.504Z,82.00
2018-08-13T02:22:42.017Z,81.88
2018-08-13T02:25:11.499Z,82.62
2018-08-13T02:27:40.990Z,83.28
2018-08-13T02:30:11.850Z,82.84
2018-08-13T02:32:41.397Z,82.44
2018-08-13T02:35:10.836Z,82.62
2018-08-13T02:37:40.552Z,82.12
2018-08-13T02:40:10.739Z,82.33
2018-08-13T02:42:40.206Z,82.51
2018-08-13T02:45:10.914Z,82.34
2018-08-13T02:47:40.404Z,82.51
2018-08-13T02:50:12.750Z,82.25
2018-08-13T02:52:42.292Z,82.46
2018-08-13T02:55:12.448Z,82.45
2018-08-13T02:57:41.916Z,82.79
2018-08-13T03:00:12.495Z,82.23
2018-08-13T03:02:41.957Z,82.08
2018-08-13T03:05:12.945Z,83.10
2018-08-13T03:07:42.748Z,84.40
2018-08-13T03:10:13.328Z,84.86
2018-08-13T03:12:43.150Z,84.00
2018-08-13T03:15:14.819Z,84.16
2018-08-13T03:17:44.865Z,84.20
2018-08-13T03:20:14.337Z,83.88
2018-08-13T03:22:43.771Z,84.13
2018-08-13T03:25:13.132Z,84.46
2018-08-13T03:27:42.598Z,84.08
2018-08-13T03:30:14.194Z,84.55
2018-08-13T03:32:44.116Z,84.84
2018-08-13T03:35:13.579Z,84.77
2018-08-13T03:37:43.929Z,84.01
2018-08-13T03:40:14.105Z,84.30
2018-08-13T03:42:43.538Z,83.84
2018-08-13T03:45:13.193Z,84.53
2018-08-13T03:47:42.679Z,84.64
2018-08-13T03:50:12.883Z,84.61
2018-08-13T03:52:43.709Z,84.69
2018-08-13T03:55:13.158Z,84.75
2018-08-13T03:57:43.084Z,85.08
2018-08-13T04:00:15.358Z,84.73
2018-08-13T04:02:44.876Z,85.33
2018-08-13T04:05:15.944Z,85.69
2018-08-13T04:07:45.454Z,85.08
2018-08-13T04:10:14.950Z,85.26
2018-08-13T04:12:44.875Z,85.71
2018-08-13T04:15:15.326Z,85.39
2018-08-13T04:17:45.520Z,85.52
2018-08-13T04:20:15.705Z,85.96
2018-08-13T04:22:45.428Z,85.47
2018-08-13T04:25:14.902Z,85.93
2018-08-13T04:27:44.478Z,86.27
2018-08-13T04:30:16.110Z,86.10
2018-08-13T04:32:46.510Z,86.72
2018-08-13T04:35:15.993Z,86.44
2018-08-13T04:37:46.438Z,86.87
2018-08-13T04:40:17.103Z,88.33
2018-08-13T04:42:47.475Z,90.36
2018-08-13T04:45:16.931Z,91.33
2018-08-13T04:47:53.925Z,90.97
2018-08-13T04:50:23.506Z,92.25
2018-08-13T04:52:53.089Z,92.93
2018-08-13T04:55:22.578Z,93.68
2018-08-13T04:57:52.148Z,93.76
2018-08-13T05:00:22.454Z,93.13
2018-08-13T05:02:51.913Z,93.82
2018-08-13T05:05:21.341Z,94.94
2018-08-13T05:07:50.785Z,95.28
2018-08-13T05:10:20.304Z,95.65
2018-08-13T05:12:49.763Z,96.11
2018-08-13T05:15:19.190Z,96.35
2018-08-13T05:17:48.650Z,97.08
2018-08-13T05:20:18.138Z,96.78
2018-08-13T05:22:47.573Z,97.06
2018-08-13T05:25:17.070Z,97.60
2018-08-13T05:27:46.469Z,96.98
2018-08-13T05:30:15.940Z,97.35
2018-08-13T05:32:45.483Z,98.01
2018-08-13T05:35:15.044Z,98.53
2018-08-13T05:37:44.536Z,99.21
2018-08-13T05:40:14.470Z,99.23
2018-08-13T05:42:43.955Z,99.67
2018-08-13T05:45:13.446Z,99.18
2018-08-13T05:47:42.895Z,99.37
2018-08-13T05:50:12.472Z,99.32
2018-08-13T05:52:41.982Z,99.16
2018-08-13T05:55:11.406Z,100.00
2018-08-13T05:57:40.811Z,99.92
2018-08-13T06:00:14.026Z,100.00
2018-08-13T06:02:43.932Z,100.00
2018-08-13T06:05:14.072Z,100.00
2018-08-13T06:07:43.660Z,100.00
2018-08-13T06:10:13.711Z,100.00
2018-08-13T06:12:43.737Z,100.00
2018-08-13T06:15:14.063Z,100.00
2018-08-13T06:17:43.504Z,100.00
2018-08-13T06:20:13.648Z,100.00
2018-08-13T06:22:44.071Z,100.00
2018-08-13T06:25:14.633Z,100.00
2018-08-13T06:27:44.124Z,100.00
2018-08-13T06:30:15.769Z,100.00
2018-08-13T06:32:45.384Z,100.00
2018-08-13T06:35:15.195Z,100.00
2018-08-13T06:37:45.009Z,100.00
2018-08-13T06:40:14.801Z,100.00
2018-08-13T06:42:44.594Z,100.00
2018-08-13T06:45:14.103Z,100.00
2018-08-13T06:47:43.527Z,100.00
2018-08-13T06:50:13.947Z,100.00
2018-08-13T06:52:43.675Z,100.00
2018-08-13T06:55:13.133Z,100.00
2018-08-13T06:57:42.638Z,100.00
2018-08-13T07:00:14.294Z,100.00
2018-08-13T07:02:43.739Z,100.00
2018-08-13T07:05:13.199Z,100.00
2018-08-13T07:07:42.758Z,100.00
2018-08-13T07:10:13.510Z,100.00
2018-08-13T07:12:44.358Z,100.00
2018-08-13T07:15:15.281Z,100.00
2018-08-13T07:17:46.421Z,100.00
2018-08-13T07:20:17.899Z,100.00
2018-08-13T07:22:47.319Z,100.00
2018-08-13T07:25:17.438Z,100.00
2018-08-13T07:27:47.560Z,100.00
2018-08-13T07:30:17.502Z,100.00
2018-08-13T07:32:47.045Z,100.00
2018-08-13T07:35:16.505Z,100.00
2018-08-13T07:37:46.128Z,100.00
2018-08-13T07:40:17.062Z,100.00
2018-08-13T07:42:47.280Z,100.00
2018-08-13T07:45:16.747Z,100.00
2018-08-13T07:47:46.216Z,100.00
2018-08-13T07:50:16.485Z,100.00
2018-08-13T07:52:45.929Z,100.00
2018-08-13T07:55:15.453Z,100.00
2018-08-13T07:57:44.925Z,100.00
2018-08-13T08:00:18.213Z,100.00
2018-08-13T08:02:48.209Z,100.00
2018-08-13T08:05:18.187Z,100.00
2018-08-13T08:07:47.722Z,100.00
2018-08-13T08:10:17.995Z,100.00
2018-08-13T08:12:47.520Z,100.00
2018-08-13T08:15:19.527Z,100.00
2018-08-13T08:17:49.056Z,100.00
2018-08-13T08:20:18.540Z,100.00
2018-08-13T08:22:48.708Z,100.00
2018-08-13T08:25:21.189Z,100.00
2018-08-13T08:27:50.624Z,100.00
2018-08-13T08:30:21.102Z,100.00
2018-08-13T08:32:50.601Z,100.00
2018-08-13T08:35:20.141Z,100.00
2018-08-13T08:37:49.585Z,100.00
2018-08-13T08:40:20.907Z,100.00
2018-08-13T08:42:51.073Z,100.00
2018-08-13T08:45:24.125Z,100.00
2018-08-13T08:47:54.489Z,100.00
2018-08-13T08:50:23.960Z,100.00
2018-08-13T08:52:53.399Z,100.00
2018-08-13T08:55:22.903Z,100.00
2018-08-13T08:57:52.412Z,100.00
2018-08-13T09:00:24.774Z,100.00
2018-08-13T09:02:54.329Z,100.00
2018-08-13T09:05:24.412Z,100.00
2018-08-13T09:07:54.022Z,100.00
2018-08-13T09:10:23.493Z,100.00
2018-08-13T09:12:52.980Z,100.00
2018-08-13T09:15:23.160Z,100.00
2018-08-13T09:18:09.424Z,100.00
2018-08-13T09:20:55.732Z,100.00
2018-08-13T09:23:42.437Z,100.00
2018-08-13T09:26:28.617Z,100.00
2018-08-13T09:29:14.735Z,100.00
2018-08-13T09:32:32.004Z,100.00
2018-08-13T09:35:20.872Z,100.00
2018-08-13T09:37:50.349Z,100.00
2018-08-13T09:40:19.923Z,100.00
2018-08-13T09:42:49.458Z,100.00
2018-08-13T09:45:18.977Z,100.00
2018-08-13T09:47:48.470Z,100.00
2018-08-13T09:50:18.813Z,100.00
2018-08-13T09:52:48.931Z,100.00
2018-08-13T09:55:18.838Z,100.00
2018-08-13T09:57:49.109Z,100.00
2018-08-13T10:00:25.648Z,100.00
2018-08-13T10:02:55.127Z,100.00
2018-08-13T10:05:24.616Z,100.00
2018-08-13T10:07:54.057Z,100.00
2018-08-13T10:10:23.502Z,100.00
2018-08-13T10:12:52.956Z,100.00
2018-08-13T10:15:22.438Z,100.00
2018-08-13T10:17:51.969Z,100.00
2018-08-13T10:20:22.015Z,100.00
2018-08-13T10:22:51.449Z,100.00
2018-08-13T10:25:30.032Z,100.00
2018-08-13T10:28:00.290Z,100.00
2018-08-13T10:30:29.772Z,100.00
2018-08-13T10:32:59.232Z,100.00
2018-08-13T10:35:28.723Z,100.00
2018-08-13T10:37:58.851Z,100.00
2018-08-13T10:40:28.336Z,100.00
2018-08-13T10:42:57.777Z,100.00
2018-08-13T10:45:27.347Z,100.00
2018-08-13T10:47:56.811Z,100.00
2018-08-13T10:50:26.308Z,100.00
2018-08-13T10:52:55.787Z,100.00
2018-08-13T10:55:25.971Z,100.00
2018-08-13T10:57:55.477Z,100.00
2018-08-13T11:00:24.943Z,100.00
2018-08-13T11:02:54.585Z,100.00
2018-08-13T11:05:24.035Z,100.00
2018-08-13T11:07:53.770Z,100.00
2018-08-13T11:10:23.271Z,100.00
2018-08-13T11:12:52.741Z,100.00
2018-08-13T11:15:24.731Z,100.00
2018-08-13T11:17:54.225Z,100.00
2018-08-13T11:20:23.685Z,100.00
2018-08-13T11:22:53.124Z,100.00
2018-08-13T11:25:22.685Z,100.00
2018-08-13T11:27:52.217Z,100.00
2018-08-13T11:30:21.789Z,100.00
2018-08-13T11:32:51.243Z,100.00
2018-08-13T11:35:20.744Z,100.00
2018-08-13T11:37:50.465Z,99.71
2018-08-13T11:40:20.064Z,98.57
2018-08-13T11:42:50.005Z,96.99
2018-08-13T11:45:19.479Z,97.03
2018-08-13T11:47:48.902Z,97.18
2018-08-13T11:50:19.636Z,97.86
2018-08-13T11:52:50.540Z,96.39
2018-08-13T11:55:20.469Z,95.92
2018-08-13T11:57:50.670Z,96.01
2018-08-13T12:00:20.724Z,96.55
2018-08-13T12:02:50.099Z,95.40
2018-08-13T12:05:19.601Z,95.77
2018-08-13T12:07:49.109Z,94.48
2018-08-13T12:10:18.560Z,93.64
2018-08-13T12:12:48.016Z,96.12
2018-08-13T12:15:17.523Z,94.78
2018-08-13T12:17:47.074Z,92.80
2018-08-13T12:20:19.118Z,89.46
2018-08-13T12:22:48.863Z,89.07
2018-08-13T12:25:27.363Z,88.15
2018-08-13T12:27:58.019Z,88.60
2018-08-13T12:30:27.617Z,91.47
2018-08-13T12:32:57.319Z,88.41
2018-08-13T12:35:27.768Z,87.69
2018-08-13T12:37:57.274Z,85.56
2018-08-13T12:40:26.781Z,88.58
2018-08-13T12:42:56.237Z,90.46
2018-08-13T12:45:25.896Z,87.85
2018-08-13T12:47:55.535Z,86.38
2018-08-13T12:50:24.953Z,84.74
2018-08-13T12:52:54.483Z,85.76
2018-08-13T12:55:24.043Z,86.29
2018-08-13T12:57:54.174Z,82.88
2018-08-13T13:00:24.372Z,80.57
2018-08-13T13:02:53.824Z,79.66
2018-08-13T13:05:23.286Z,79.97
2018-08-13T13:07:52.682Z,78.91
2018-08-13T13:10:22.183Z,78.66
2018-08-13T13:12:51.603Z,78.93
2018-08-13T13:15:21.515Z,76.42
2018-08-13T13:17:51.228Z,77.59
2018-08-13T13:20:23.274Z,78.40
2018-08-13T13:22:52.962Z,77.33
2018-08-13T13:25:22.468Z,75.46
2018-08-13T13:27:51.878Z,79.83
2018-08-13T13:30:21.285Z,76.98
2018-08-13T13:32:50.788Z,76.54
2018-08-13T13:35:20.187Z,76.28
2018-08-13T13:37:49.629Z,74.43
2018-08-13T13:40:19.228Z,72.75
2018-08-13T13:42:48.649Z,74.09
2018-08-13T13:45:18.664Z,73.15
2018-08-13T13:47:48.274Z,71.00
2018-08-13T13:50:19.061Z,70.91
2018-08-13T13:52:48.577Z,72.14
2018-08-13T13:55:18.187Z,72.87
2018-08-13T13:57:47.659Z,71.48
2018-08-13T14:00:19.657Z,71.28
2018-08-13T14:02:50.980Z,69.37
2018-08-13T14:05:21.072Z,69.13
2018-08-13T14:07:50.513Z,68.17
2018-08-13T14:10:21.973Z,66.28
2018-08-13T14:12:51.458Z,66.44
2018-08-13T14:15:22.540Z,64.24
2018-08-13T14:17:52.397Z,63.92
2018-08-13T14:20:22.149Z,66.24
2018-08-13T14:22:51.591Z,65.57
2018-08-13T14:25:21.133Z,63.49
2018-08-13T14:27:50.597Z,62.70
2018-08-13T14:30:23.656Z,64.48
2018-08-13T14:32:53.295Z,63.15
2018-08-13T14:35:23.984Z,61.81
2018-08-13T14:37:53.547Z,63.76
2018-08-13T14:40:23.028Z,61.48
2018-08-13T14:42:52.519Z,61.61
2018-08-13T14:45:22.135Z,64.31
2018-08-13T14:47:52.447Z,60.54
2018-08-13T14:50:22.036Z,59.36
2018-08-13T14:52:51.494Z,61.09
2018-08-13T14:55:22.705Z,58.71
2018-08-13T14:57:52.146Z,58.94
2018-08-13T15:00:30.609Z,60.53
2018-08-13T15:03:00.020Z,60.05
2018-08-13T15:05:29.535Z,61.96
2018-08-13T15:07:59.050Z,59.86
2018-08-13T15:10:28.630Z,62.23
2018-08-13T15:12:58.290Z,63.51
2018-08-13T15:15:27.631Z,59.31
2018-08-13T15:17:57.079Z,57.59
2018-08-13T15:20:29.383Z,58.46
2018-08-13T15:22:58.923Z,58.70
2018-08-13T15:25:29.211Z,58.20
2018-08-13T15:27:59.623Z,58.26
2018-08-13T15:30:29.056Z,59.33
2018-08-13T15:32:58.593Z,57.72
2018-08-13T15:35:28.040Z,58.90
2018-08-13T15:37:57.463Z,59.04
2018-08-13T15:40:26.956Z,59.57
2018-08-13T15:42:56.474Z,58.88
2018-08-13T15:45:25.975Z,60.00
2018-08-13T15:47:55.528Z,59.65
2018-08-13T15:50:25.085Z,62.10
2018-08-13T15:52:54.567Z,63.29
2018-08-13T15:55:23.945Z,62.20
2018-08-13T15:57:54.403Z,60.62
2018-08-13T16:00:25.614Z,61.63
2018-08-13T16:02:55.274Z,60.99
2018-08-13T16:05:24.771Z,60.03
2018-08-13T16:07:54.484Z,65.72
2018-08-13T16:10:24.003Z,60.59
2018-08-13T16:12:55.235Z,61.79
2018-08-13T16:15:25.479Z,61.81
2018-08-13T16:17:54.895Z,62.63
2018-08-13T16:20:24.307Z,61.32
2018-08-13T16:22:53.788Z,61.69
2018-08-13T16:25:23.262Z,64.28
2018-08-13T16:27:52.827Z,62.14
2018-08-13T16:30:27.117Z,61.64
2018-08-13T16:32:56.589Z,61.42
2018-08-13T16:35:26.358Z,63.74
2018-08-13T16:37:56.118Z,62.67
2018-08-13T16:40:25.620Z,62.05
2018-08-13T16:42:55.081Z,62.66
2018-08-13T16:45:24.838Z,65.33
2018-08-13T16:47:54.317Z,64.98
2018-08-13T16:50:32.516Z,63.82
2018-08-13T16:53:02.571Z,64.71
2018-08-13T16:55:32.953Z,65.05
2018-08-13T16:58:03.123Z,65.65
2018-08-13T17:00:34.111Z,64.83
2018-08-13T17:03:03.584Z,63.80
2018-08-13T17:05:34.691Z,64.06
2018-08-13T17:08:04.508Z,64.75
2018-08-13T17:10:33.920Z,66.52
2018-08-13T17:13:03.489Z,67.77
2018-08-13T17:15:33.565Z,67.99
2018-08-13T17:18:04.969Z,69.94
2018-08-13T17:20:38.260Z,70.67
2018-08-13T17:23:07.902Z,70.36
2018-08-13T17:25:37.456Z,69.40
2018-08-13T17:28:07.283Z,70.76
2018-08-13T17:30:36.743Z,72.44
2018-08-13T17:33:07.329Z,74.10
2018-08-13T17:35:37.107Z,73.91
2018-08-13T17:38:09.656Z,75.61
2018-08-13T17:40:39.230Z,77.84
2018-08-13T17:43:10.521Z,77.13
2018-08-13T17:45:39.869Z,77.40
2018-08-13T17:48:10.563Z,79.44
2018-08-13T17:50:41.224Z,79.38
2018-08-13T17:53:11.502Z,81.28
2018-08-13T17:55:41.040Z,83.83
2018-08-13T17:58:10.579Z,85.00
2018-08-13T18:00:40.052Z,85.18
2018-08-13T18:03:09.539Z,84.23
2018-08-13T18:05:39.067Z,85.07
2018-08-13T18:08:08.783Z,84.69
2018-08-13T18:10:38.820Z,84.35
2018-08-13T18:13:09.418Z,84.58
2018-08-13T18:15:38.956Z,85.57
2018-08-13T18:18:08.489Z,85.98
2018-08-13T18:20:37.965Z,87.73
2018-08-13T18:23:09.199Z,86.69
2018-08-13T18:25:38.754Z,86.60
2018-08-13T18:28:08.319Z,87.10
2018-08-13T18:30:38.363Z,87.37
2018-08-13T18:33:08.319Z,87.60
2018-08-13T18:35:37.789Z,88.53
2018-08-13T18:38:07.332Z,88.11
2018-08-13T18:40:36.865Z,88.22
2018-08-13T18:43:06.288Z,87.16
2018-08-13T18:45:35.781Z,87.77
2018-08-13T18:48:05.270Z,89.04
2018-08-13T18:50:34.848Z,87.90
2018-08-13T18:53:04.407Z,88.70
2018-08-13T18:55:33.891Z,88.96
2018-08-13T18:58:03.440Z,89.02
2018-08-13T19:00:33.904Z,89.38
2018-08-13T19:03:03.682Z,90.12
2018-08-13T19:05:34.943Z,89.90
2018-08-13T19:08:04.503Z,90.17
2018-08-13T19:10:34.056Z,90.30
2018-08-13T19:13:03.541Z,90.18
2018-08-13T19:15:33.080Z,90.17
2018-08-13T19:18:02.552Z,90.95
2018-08-13T19:20:32.111Z,91.11
2018-08-13T19:23:01.519Z,91.98
2018-08-13T19:25:31.065Z,91.83
2018-08-13T19:28:00.550Z,91.87
2018-08-13T19:30:30.005Z,92.52
2018-08-13T19:32:59.522Z,92.56
2018-08-13T19:35:29.032Z,93.04
2018-08-13T19:37:58.530Z,92.64
2018-08-13T19:40:28.085Z,93.85
2018-08-13T19:42:57.569Z,93.77
2018-08-13T19:45:27.099Z,92.69
2018-08-13T19:47:56.631Z,92.80
2018-08-13T19:50:26.232Z,92.92
2018-08-13T19:52:55.694Z,92.98
2018-08-13T19:55:25.130Z,93.45
2018-08-13T19:57:54.652Z,93.33
2018-08-13T20:00:27.255Z,93.30
2018-08-13T20:02:56.839Z,92.36
2018-08-13T20:05:27.420Z,92.34
2018-08-13T20:07:57.118Z,92.96
2018-08-13T20:10:26.595Z,92.49
2018-08-13T20:12:56.120Z,93.00
2018-08-13T20:15:25.602Z,93.33
2018-08-13T20:17:55.156Z,93.29
2018-08-13T20:20:24.643Z,93.33
2018-08-13T20:22:54.156Z,93.25
2018-08-13T20:25:27.229Z,92.82
2018-08-13T20:27:56.763Z,93.41
2018-08-13T20:30:26.235Z,93.41
2018-08-13T20:32:55.739Z,93.51
2018-08-13T20:35:25.328Z,93.75
2018-08-13T20:37:54.785Z,93.25
2018-08-13T20:40:24.248Z,94.14
2018-08-13T20:42:53.689Z,93.91
2018-08-13T20:45:23.851Z,94.21
2018-08-13T20:47:53.367Z,94.17
2018-08-13T20:50:24.718Z,94.35
2018-08-13T20:52:55.557Z,94.61
2018-08-13T20:55:29.782Z,94.71
2018-08-13T20:57:59.274Z,95.29
2018-08-13T21:00:30.337Z,94.42
2018-08-13T21:03:01.148Z,94.45
2018-08-13T21:05:30.615Z,94.34
2018-08-13T21:08:00.923Z,94.92
2018-08-13T21:10:30.390Z,95.22
2018-08-13T21:12:59.913Z,95.55
2018-08-13T21:15:29.447Z,94.95
2018-08-13T21:17:58.854Z,95.11
2018-08-13T21:20:29.772Z,95.25
2018-08-13T21:22:59.260Z,94.90
2018-08-13T21:25:29.431Z,95.30
2018-08-13T21:27:58.776Z,94.93
2018-08-13T21:30:28.243Z,95.68
2018-08-13T21:32:58.465Z,95.82
2018-08-13T21:35:28.936Z,95.36
2018-08-13T21:37:58.437Z,95.46
2018-08-13T21:40:27.899Z,96.42
2018-08-13T21:42:57.447Z,96.01
2018-08-13T21:45:26.823Z,96.93
2018-08-13T21:47:56.336Z,97.02
2018-08-13T21:50:25.845Z,96.42
2018-08-13T21:52:55.223Z,96.97
2018-08-13T21:55:24.713Z,97.13
2018-08-13T21:57:54.273Z,97.40
2018-08-13T22:00:30.279Z,97.05
2018-08-13T22:03:01.891Z,97.18
2018-08-13T22:05:32.437Z,97.28
2018-08-13T22:08:01.900Z,97.23
2018-08-13T22:10:31.327Z,97.26
2018-08-13T22:13:00.783Z,97.24
2018-08-13T22:15:31.214Z,96.35
2018-08-13T22:18:05.034Z,96.63
2018-08-13T22:20:36.092Z,96.61
2018-08-13T22:23:07.124Z,96.35
2018-08-13T22:25:40.357Z,96.91
2018-08-13T22:28:11.263Z,96.81
2018-08-13T22:30:40.810Z,96.66
2018-08-13T22:33:11.250Z,97.37
2018-08-13T22:35:41.359Z,97.19
2018-08-13T22:38:11.927Z,96.80
2018-08-13T22:40:41.903Z,97.54
2018-08-13T22:43:11.438Z,97.60
2018-08-13T22:45:41.143Z,97.43
2018-08-13T22:48:10.574Z,97.61
2018-08-13T22:50:40.046Z,97.13
2018-08-13T22:53:09.543Z,97.33
2018-08-13T22:55:39.085Z,97.39
2018-08-13T22:58:08.656Z,97.41
2018-08-13T23:00:38.162Z,97.55
2018-08-13T23:03:08.089Z,97.75
2018-08-13T23:05:37.600Z,97.61
2018-08-13T23:08:07.512Z,97.16
2018-08-13T23:10:36.995Z,97.20
2018-08-13T23:13:15.513Z,97.20
2018-08-13T23:15:45.003Z,97.78
2018-08-13T23:18:14.550Z,97.43
2018-08-13T23:20:43.998Z,97.82
2018-08-13T23:23:13.454Z,97.82
2018-08-13T23:25:42.897Z,97.34
2018-08-13T23:28:12.719Z,97.85
2018-08-13T23:30:42.192Z,97.17
2018-08-13T23:33:11.609Z,97.92
2018-08-13T23:35:41.075Z,98.11
2018-08-13T23:38:10.528Z,98.37
2018-08-13T23:40:39.966Z,98.61
2018-08-13T23:43:09.446Z,98.81
2018-08-13T23:45:38.858Z,97.96
2018-08-13T23:48:08.364Z,98.50
2018-08-13T23:50:37.809Z,99.26
2018-08-13T23:53:07.254Z,98.70
2018-08-13T23:55:38.432Z,99.25
2018-08-13T23:58:12.636Z,98.71
